Time;durP1;ratioP1;P1;durP2;ratioP2;P2;SDS_P1;SDS_P2;PMS_P1;PMS_P2;Temp;Humidity;BMP_temperature;BMP_pressure;BME280_temperature;BME280_humidity;BME280_pressure;Samples;Min_cycle;Max_cycle;Signal;HPM_P1;HPM_P2
2022/03/02 00:01:06;;;;;;;28.98;11.88;;;;;;;3.71;nan;97941.78;10565948;27;20039;-71
2022/03/02 00:06:09;;;;;;;28.35;11.55;;;;;;;3.69;nan;97930.59;10565362;28;20046;-71
2022/03/02 00:11:11;;;;;;;31.30;12.90;;;;;;;3.71;nan;97938.34;10564126;28;20056;-71
2022/03/02 00:16:13;;;;;;;25.83;11.18;;;;;;;3.67;nan;97923.69;10564398;28;20035;-71
2022/03/02 00:21:15;;;;;;;24.90;12.27;;;;;;;3.64;nan;97918.50;10563748;28;20074;-71
2022/03/02 00:26:17;;;;;;;27.00;12.55;;;;;;;3.58;nan;97893.50;10564240;28;20044;-71
2022/03/02 00:31:19;;;;;;;29.40;12.55;;;;;;;3.53;nan;97879.72;10563753;28;20074;-71
2022/03/02 00:36:21;;;;;;;27.65;12.32;;;;;;;3.47;nan;97848.69;10563625;28;20063;-71
2022/03/02 00:41:22;;;;;;;26.75;11.50;;;;;;;3.40;nan;97834.03;10561993;28;20043;-71
2022/03/02 00:46:29;;;;;;;31.23;13.00;;;;;;;3.35;nan;97811.63;10563617;28;20484;-71
2022/03/02 00:51:31;;;;;;;29.55;12.45;;;;;;;3.31;nan;97803.88;10557806;28;20516;-71
2022/03/02 00:56:32;;;;;;;23.70;11.70;;;;;;;3.31;nan;97799.53;10563475;28;20105;-71
2022/03/02 01:01:34;;;;;;;25.15;11.95;;;;;;;3.32;nan;97806.44;10563959;28;20080;-71
2022/03/02 01:06:36;;;;;;;32.58;12.38;;;;;;;3.29;nan;97790.94;10562914;28;20046;-71
2022/03/02 01:11:38;;;;;;;27.65;12.65;;;;;;;3.25;nan;97781.44;10562107;28;20051;-71
2022/03/02 01:16:40;;;;;;;35.30;13.57;;;;;;;3.17;nan;97747.84;10561291;28;20044;-71
2022/03/02 01:21:42;;;;;;;30.55;11.40;;;;;;;3.18;nan;97759.06;10562231;28;20583;-71
2022/03/02 01:26:46;;;;;;;29.52;12.98;;;;;;;3.10;nan;97730.63;10562944;28;20507;-71
2022/03/02 01:31:47;;;;;;;26.85;12.10;;;;;;;3.08;nan;97721.16;10562337;28;20039;-71
2022/03/02 01:36:49;;;;;;;29.98;12.90;;;;;;;3.05;nan;97714.28;10566558;28;20116;-71
2022/03/02 01:41:51;;;;;;;25.55;11.63;;;;;;;3.05;nan;97710.81;10570462;27;20043;-71
2022/03/02 01:46:52;;;;;;;24.23;11.90;;;;;;;2.95;nan;97671.22;10570409;28;20067;-71
2022/03/02 01:51:54;;;;;;;29.35;11.77;;;;;;;2.89;nan;97654.00;10570939;28;20104;-71
2022/03/02 01:56:56;;;;;;;28.98;12.48;;;;;;;2.80;nan;97623.84;10571019;28;20039;-71
2022/03/02 02:01:58;;;;;;;25.23;11.57;;;;;;;2.75;nan;97598.91;10570489;28;20847;-69
2022/03/02 02:07:00;;;;;;;28.80;12.20;;;;;;;2.63;nan;97546.41;10569781;28;20039;-71
2022/03/02 02:12:01;;;;;;;27.95;12.13;;;;;;;2.53;nan;97518.03;10568480;28;20050;-71
2022/03/02 02:17:03;;;;;;;27.50;12.25;;;;;;;2.50;nan;97511.13;10569321;28;20058;-71
2022/03/02 02:22:05;;;;;;;26.33;11.93;;;;;;;2.49;nan;97509.41;10568511;27;20044;-70
2022/03/02 02:27:07;;;;;;;31.60;12.80;;;;;;;2.54;nan;97522.31;10569519;28;20067;-71
2022/03/02 02:32:09;;;;;;;28.25;10.93;;;;;;;2.56;nan;97539.53;10568079;28;20771;-71
2022/03/02 02:37:12;;;;;;;25.13;11.02;;;;;;;2.60;nan;97553.31;10568752;28;20067;-70
2022/03/02 02:42:14;;;;;;;24.10;11.30;;;;;;;2.60;nan;97556.75;10567606;28;20054;-71
2022/03/02 02:47:16;;;;;;;25.80;11.38;;;;;;;2.57;nan;97543.00;10566919;28;20051;-71
2022/03/02 02:52:18;;;;;;;25.70;10.77;;;;;;;2.61;nan;97561.06;10554356;28;20068;-71
2022/03/02 02:57:19;;;;;;;25.33;11.57;;;;;;;2.62;nan;97573.09;10568570;28;20143;-71
2022/03/02 03:02:21;;;;;;;28.73;12.13;;;;;;;2.64;nan;97584.28;10567726;27;20085;-71
2022/03/02 03:07:23;;;;;;;27.48;12.10;;;;;;;2.61;nan;97565.34;10567499;28;20039;-71
2022/03/02 03:12:25;;;;;;;27.17;12.05;;;;;;;2.58;nan;97558.47;10566172;27;20043;-71
2022/03/02 03:17:27;;;;;;;27.25;11.50;;;;;;;2.59;nan;97557.59;10565953;27;20071;-70
2022/03/02 03:22:28;;;;;;;28.02;11.43;;;;;;;2.57;nan;97549.00;10565628;28;20055;-70
2022/03/02 03:27:30;;;;;;;28.42;11.77;;;;;;;2.59;nan;97556.75;10566605;28;20043;-71
2022/03/02 03:32:32;;;;;;;27.85;12.00;;;;;;;2.52;nan;97537.81;10565104;28;20547;-71
2022/03/02 03:37:33;;;;;;;23.67;11.23;;;;;;;2.54;nan;97549.00;10565431;28;20048;-71
2022/03/02 03:42:35;;;;;;;28.05;12.32;;;;;;;2.50;nan;97526.63;10563942;28;20058;-71
2022/03/02 03:47:37;;;;;;;25.98;11.73;;;;;;;2.50;nan;97530.94;10565475;28;20150;-71
2022/03/02 03:52:39;;;;;;;24.95;11.18;;;;;;;2.51;nan;97532.66;10565036;28;20051;-71
2022/03/02 03:57:42;;;;;;;28.38;11.85;;;;;;;2.45;nan;97518.06;10565098;27;20043;-71
2022/03/02 04:02:45;;;;;;;26.23;11.10;;;;;;;2.53;nan;97541.28;10564736;28;20056;-71
2022/03/02 04:07:47;;;;;;;31.60;12.15;;;;;;;2.43;nan;97509.44;10564411;28;20100;-71
2022/03/02 04:12:49;;;;;;;26.45;12.05;;;;;;;2.44;nan;97516.31;10563478;27;20058;-71
2022/03/02 04:17:50;;;;;;;27.67;12.40;;;;;;;2.41;nan;97511.16;10563717;28;20043;-71
2022/03/02 04:22:52;;;;;;;26.88;11.90;;;;;;;2.35;nan;97488.81;10562995;28;20073;-71
2022/03/02 04:27:54;;;;;;;25.30;11.35;;;;;;;2.38;nan;97493.09;10564320;28;20084;-71
2022/03/02 04:32:56;;;;;;;26.58;11.30;;;;;;;2.39;nan;97497.41;10555782;28;20428;-71
2022/03/02 04:37:58;;;;;;;28.70;11.93;;;;;;;2.34;nan;97486.22;10563429;27;20044;-71
2022/03/02 04:42:59;;;;;;;26.42;11.77;;;;;;;2.42;nan;97515.47;10556077;28;20050;-71
2022/03/02 04:48:01;;;;;;;24.67;11.27;;;;;;;2.31;nan;97476.75;10563475;28;20044;-71
2022/03/02 04:53:03;;;;;;;28.98;11.63;;;;;;;2.33;nan;97484.50;10562024;28;20051;-71
2022/03/02 04:58:04;;;;;;;25.20;10.63;;;;;;;2.25;nan;97462.16;10555966;28;20047;-71
2022/03/02 05:03:06;;;;;;;28.35;11.02;;;;;;;2.13;nan;97418.28;10562985;28;20040;-71
2022/03/02 05:08:08;;;;;;;26.65;10.85;;;;;;;1.94;nan;97348.69;10561767;28;20673;-71
2022/03/02 05:13:10;;;;;;;25.27;10.25;;;;;;;1.88;nan;97319.50;10561022;28;20086;-71
2022/03/02 05:18:12;;;;;;;22.25;10.50;;;;;;;1.73;nan;97269.66;10562244;28;20072;-71
2022/03/02 05:23:13;;;;;;;26.45;10.63;;;;;;;1.58;nan;97213.00;10561508;28;20095;-71
2022/03/02 05:28:15;;;;;;;188.35;38.85;;;;;;;1.46;nan;97166.63;10562329;28;20800;-71
2022/03/02 05:33:16;;;;;;;34.10;13.35;;;;;;;1.27;nan;97091.09;10561601;28;20047;-71
2022/03/02 05:38:18;;;;;;;24.95;10.88;;;;;;;;;;10561433;28;20075;-71
2022/03/02 05:43:19;;;;;;;38.90;12.57;;;;;;;;;;10559092;28;20071;-71
2022/03/02 05:48:21;;;;;;;28.88;11.57;;;;;;;;;;10541195;28;20044;-71
2022/03/02 05:53:22;;;;;;;25.75;11.68;;;;;;;;;;10553494;28;20055;-71
2022/03/02 05:58:25;;;;;;;31.85;12.00;;;;;;;;;;10553082;28;20043;-71
2022/03/02 06:03:27;;;;;;;31.10;11.70;;;;;;;;;;10548366;28;20673;-71
2022/03/02 06:08:28;;;;;;;27.83;11.68;;;;;;;;;;10554021;28;20039;-71
2022/03/02 06:13:30;;;;;;;27.67;11.15;;;;;;;;;;10559734;27;20040;-71
2022/03/02 06:18:31;;;;;;;27.17;10.90;;;;;;;;;;10560651;28;20058;-70
2022/03/02 06:23:33;;;;;;;26.35;10.93;;;;;;;;;;10563983;28;20776;-71
2022/03/02 06:28:34;;;;;;;24.52;10.98;;;;;;;;;;10568899;27;20047;-72
2022/03/02 06:33:36;;;;;;;31.45;12.40;;;;;;;;;;10568087;28;20730;-72
2022/03/02 06:38:37;;;;;;;25.30;11.75;;;;;;;;;;10565018;28;20154;-72
2022/03/02 06:43:43;;;;;;;28.77;11.70;;;;;;;;;;10554326;28;20436;-72
2022/03/02 06:49:06;;;;;;;25.58;10.70;;;;;;;;;;10567256;27;20493;-68
2022/03/02 06:54:10;;;;;;;32.78;12.57;;;;;;;;;;10543967;28;20043;-72
2022/03/02 06:59:14;;;;;;;29.15;12.27;;;;;;;;;;10565944;27;20047;-72
2022/03/02 07:04:17;;;;;;;30.30;12.50;;;;;;;;;;10567336;27;20046;-72
2022/03/02 07:09:18;;;;;;;28.10;11.18;;;;;;;;;;10565872;28;20150;-72
2022/03/02 07:14:20;;;;;;;28.95;11.52;;;;;;;;;;10566431;28;20081;-71
2022/03/02 07:19:21;;;;;;;28.48;12.23;;;;;;;;;;10567236;27;20162;-72
2022/03/02 07:24:23;;;;;;;33.03;12.57;;;;;;;;;;10567720;28;20717;-72
2022/03/02 07:29:28;;;;;;;36.08;13.77;;;;;;;;;;10561596;28;20134;-72
2022/03/02 07:34:31;;;;;;;32.05;13.98;;;;;;;;;;10567252;27;20442;-72
2022/03/02 07:39:32;;;;;;;31.10;14.40;;;;;;;;;;10565421;28;20058;-72
2022/03/02 07:44:33;;;;;;;33.30;13.35;;;;;;;;;;10560530;28;20580;-72
2022/03/02 07:49:35;;;;;;;31.13;12.63;;;;;;;5.56;nan;98772.50;10566104;27;20075;-73
2022/03/02 07:54:40;;;;;;;29.92;12.88;;;;;;;7.87;nan;99676.94;10563525;28;20044;-73
2022/03/02 07:59:44;;;;;;;27.73;12.55;;;;;;;8.11;nan;99785.81;10561430;27;20116;-73
2022/03/02 08:04:51;;;;;;;34.50;15.38;;;;;;;6.93;nan;99313.22;10550866;28;20715;-73
2022/03/02 08:09:53;;;;;;;25.92;11.50;;;;;;;6.10;nan;99004.03;10565561;27;20136;-73
2022/03/02 08:14:55;;;;;;;26.52;11.45;;;;;;;5.92;nan;98930.25;10568429;28;20052;-73
2022/03/02 08:19:57;;;;;;;26.52;12.55;;;;;;;5.86;nan;98904.25;10562038;28;20044;-72
2022/03/02 08:25:10;;;;;;;29.67;12.88;;;;;;;6.15;nan;99031.75;10569259;28;20046;-74
2022/03/02 08:30:13;;;;;;;25.15;13.25;;;;;;;6.00;nan;98970.19;10539379;28;20543;-73
2022/03/02 08:35:16;;;;;;;25.58;11.77;;;;;;;6.19;nan;99041.31;10542319;28;20412;-73
2022/03/02 08:40:17;;;;;;;26.35;12.32;;;;;;;6.52;nan;99174.16;10544406;28;20046;-73
2022/03/02 08:45:20;;;;;;;30.20;13.30;;;;;;;6.62;nan;99216.69;10554993;28;20047;-73
2022/03/02 08:50:22;;;;;;;25.35;11.98;;;;;;;6.81;nan;99290.56;10558083;28;20032;-73
2022/03/02 08:55:29;;;;;;;25.52;12.50;;;;;;;7.05;nan;99391.38;10547959;28;20058;-73
2022/03/02 09:00:32;;;;;;;26.67;11.85;;;;;;;7.21;nan;99455.75;10552453;28;20040;-73
2022/03/02 09:05:34;;;;;;;27.77;11.82;;;;;;;7.38;nan;99526.22;10555480;28;20105;-73
2022/03/02 09:10:36;;;;;;;25.95;12.82;;;;;;;7.51;nan;99576.72;10557184;28;20496;-74
2022/03/02 09:15:40;;;;;;;23.58;11.73;;;;;;;7.43;nan;99549.69;10551745;28;20061;-73
2022/03/02 09:20:43;;;;;;;25.25;11.63;;;;;;;7.18;nan;99454.88;10556400;28;20600;-73
2022/03/02 09:25:46;;;;;;;23.27;10.88;;;;;;;7.38;nan;99526.22;10554811;28;20039;-73
2022/03/02 09:30:49;;;;;;;25.70;11.68;;;;;;;7.40;nan;99540.16;10557456;28;20187;-73
2022/03/02 09:35:53;;;;;;;26.80;10.68;;;;;;;7.68;nan;99649.81;10561768;28;20038;-73
2022/03/02 09:40:58;;;;;;;21.77;10.70;;;;;;;7.59;nan;99614.13;10553929;28;20488;-73
2022/03/02 09:46:06;;;;;;;20.58;10.43;;;;;;;7.66;nan;99645.47;10563416;28;20062;-73
2022/03/02 09:51:08;;;;;;;26.60;12.32;;;;;;;7.72;nan;99663.78;10548220;28;20424;-74
2022/03/02 09:56:11;;;;;;;19.33;10.05;;;;;;;8.05;nan;99800.53;10565012;28;20042;-73
2022/03/02 10:01:15;;;;;;;26.13;11.98;;;;;;;8.58;nan;100016.84;10563974;28;20055;-72
2022/03/02 10:06:18;;;;;;;21.98;11.27;;;;;;;8.64;nan;100035.16;10570456;28;20515;-73
2022/03/02 10:11:23;;;;;;;23.13;10.50;;;;;;;8.62;nan;100034.28;10561901;28;20501;-73
2022/03/02 10:16:28;;;;;;;28.73;11.75;;;;;;;8.93;nan;100153.88;10564887;28;20050;-72
2022/03/02 10:21:32;;;;;;;45.28;17.33;;;;;;;8.95;nan;100166.13;10563999;28;20067;-74
2022/03/02 10:26:56;;;;;;;21.00;9.77;;;;;;;8.53;nan;99991.53;10554581;28;20070;-74
2022/03/02 10:32:08;;;;;;;27.23;12.57;;;;;;;8.84;nan;100118.09;10568634;27;20554;-73
2022/03/02 10:37:24;;;;;;;21.67;10.48;;;;;;;9.19;nan;100253.50;10569735;28;20058;-74
2022/03/02 10:42:28;;;;;;;25.73;11.25;;;;;;;8.83;nan;100117.22;10564918;27;20043;-74
2022/03/02 10:47:31;;;;;;;24.02;9.55;;;;;;;9.22;nan;100277.06;10569462;28;20040;-74
2022/03/02 10:52:38;;;;;;;19.58;9.82;;;;;;;9.06;nan;100208.03;10559569;27;20089;-76
2022/03/02 10:57:40;;;;;;;21.92;9.52;;;;;;;9.10;nan;100225.53;10567986;28;20071;-78
2022/03/02 11:02:44;;;;;;;21.30;10.75;;;;;;;9.35;nan;100317.28;10569054;28;20138;-77
2022/03/02 11:07:47;;;;;;;19.98;9.43;;;;;;;9.55;nan;100409.09;10561691;28;20070;-78
2022/03/02 11:12:50;;;;;;;23.50;9.25;;;;;;;9.73;nan;100485.16;10565398;27;20047;-77
2022/03/02 11:17:54;;;;;;;24.55;9.70;;;;;;;9.84;nan;100519.31;10567947;28;20069;-76
2022/03/02 11:22:59;;;;;;;24.73;9.75;;;;;;;9.83;nan;100520.19;10556953;28;20077;-76
2022/03/02 11:28:05;;;;;;;17.85;9.13;;;;;;;9.86;nan;100529.81;10558797;28;20043;-72
2022/03/02 11:33:07;;;;;;;19.92;10.27;;;;;;;9.88;nan;100535.97;10565896;28;20036;-76
2022/03/02 11:38:12;;;;;;;21.27;9.73;;;;;;;10.08;nan;100613.00;10566374;28;20621;-76
2022/03/02 11:43:16;;;;;;;34.33;14.48;;;;;;;10.23;nan;100677.78;10557802;28;20461;-75
2022/03/02 11:48:25;;;;;;;22.47;10.37;;;;;;;10.36;nan;100722.53;10557856;28;20054;-76
2022/03/02 11:53:52;;;;;;;35.05;12.60;;;;;;;10.21;nan;100671.66;10564322;28;20121;-76
2022/03/02 11:59:20;;;;;;;28.65;12.38;;;;;;;10.38;nan;100728.66;10557963;28;20130;-76
2022/03/02 12:04:21;;;;;;;19.88;9.20;;;;;;;10.70;nan;100860.13;10553482;28;20472;-76
2022/03/02 12:09:32;;;;;;;23.38;9.63;;;;;;;10.48;nan;100763.72;10561203;28;20487;-75
2022/03/02 12:14:50;;;;;;;;;;;;;;;10.57;nan;100805.78;10544776;28;20052;-76
2022/03/02 12:19:55;;;;;;;19.33;8.95;;;;;;;10.78;nan;100895.19;10543808;28;19958;-76
2022/03/02 12:24:58;;;;;;;16.88;8.13;;;;;;;10.67;nan;100839.13;10561489;28;20039;-75
2022/03/02 12:30:04;;;;;;;22.77;9.85;;;;;;;10.49;nan;100760.25;10564820;28;20054;-76
2022/03/02 12:35:10;;;;;;;21.75;9.40;;;;;;;10.33;nan;100702.41;10521346;28;20685;-75
2022/03/02 12:40:13;;;;;;;21.92;9.77;;;;;;;10.37;nan;100725.19;10555697;28;21716;-76
2022/03/02 12:45:15;;;;;;;25.95;12.20;;;;;;;10.44;nan;100742.72;10556628;28;20085;-74
2022/03/02 12:50:18;;;;;;;23.55;9.45;;;;;;;10.55;nan;100781.31;10562986;28;20043;-76
2022/03/02 12:55:20;;;;;;;23.55;10.32;;;;;;;10.39;nan;100727.81;10563002;28;20051;-71
2022/03/02 13:00:23;;;;;;;24.30;10.90;;;;;;;10.24;nan;100652.50;10562798;28;20539;-71
2022/03/02 13:05:43;;;;;;;20.25;9.90;;;;;;;10.32;nan;100687.53;10554500;28;20049;-72
2022/03/02 13:10:47;;;;;;;20.27;9.98;;;;;;;10.17;nan;100632.34;10556314;28;20055;-72
2022/03/02 13:15:49;;;;;;;19.95;9.45;;;;;;;10.18;nan;100627.13;10561649;28;20063;-72
2022/03/02 13:21:00;;;;;;;18.05;7.85;;;;;;;10.00;nan;100551.84;10561858;28;20128;-72
2022/03/02 13:26:01;;;;;;;21.23;9.68;;;;;;;10.15;nan;100607.84;10539868;28;20036;-71
2022/03/02 13:31:09;;;;;;;23.15;10.73;;;;;;;10.09;nan;100579.88;10551749;28;20138;-72
2022/03/02 13:36:30;;;;;;;18.80;9.48;;;;;;;10.09;nan;100588.59;10549990;28;20895;-72
2022/03/02 13:41:40;;;;;;;23.98;10.15;;;;;;;10.15;nan;100600.00;10559381;28;20036;-71
2022/03/02 13:46:42;;;;;;;23.42;10.30;;;;;;;10.20;nan;100616.69;10556778;28;20058;-72
2022/03/02 13:51:50;;;;;;;21.17;9.70;;;;;;;10.01;nan;100544.84;10563591;28;20085;-71
2022/03/02 13:56:53;;;;;;;23.20;9.75;;;;;;;9.98;nan;100530.00;10565593;28;20124;-72
2022/03/02 14:01:54;;;;;;;22.02;9.63;;;;;;;9.82;nan;100466.13;10564787;28;20044;-72
2022/03/02 14:07:04;;;;;;;23.92;9.82;;;;;;;9.97;nan;100520.41;10556567;28;20050;-72
2022/03/02 14:12:07;;;;;;;21.88;10.05;;;;;;;10.04;nan;100548.41;10530649;28;20063;-72
2022/03/02 14:17:10;;;;;;;21.05;9.60;;;;;;;9.69;nan;100406.66;10569236;28;20076;-67
2022/03/02 14:22:15;;;;;;;21.23;9.88;;;;;;;9.49;nan;100322.75;10569423;28;20077;-74
2022/03/02 14:27:29;;;;;;;25.67;10.18;;;;;;;9.49;nan;100323.59;10568943;28;20055;-73
2022/03/02 14:32:36;;;;;;;26.55;10.50;;;;;;;9.43;nan;100293.88;10559185;28;20050;-72
2022/03/02 14:37:43;;;;;;;32.88;12.85;;;;;;;9.27;nan;100228.34;10545813;28;20047;-73
2022/03/02 14:42:52;;;;;;;23.95;11.15;;;;;;;9.25;nan;100213.50;10553280;28;20057;-73
2022/03/02 14:47:58;;;;;;;24.95;10.10;;;;;;;9.22;nan;100201.31;10545639;28;20075;-72
2022/03/02 14:53:22;;;;;;;24.45;10.77;;;;;;;9.20;nan;100189.94;10560894;28;20056;-72
2022/03/02 14:58:46;;;;;;;21.63;9.70;;;;;;;9.09;nan;100149.75;10560120;28;20043;-69
2022/03/02 15:03:54;;;;;;;21.58;10.25;;;;;;;9.01;nan;100119.19;10555397;28;20035;-72
2022/03/02 15:09:04;;;;;;;29.77;11.73;;;;;;;9.00;nan;100114.81;10542162;28;20043;-71
2022/03/02 15:19:44;;;;;;;25.63;10.95;;;;;;;9.06;nan;100136.66;10563014;28;20075;-72
2022/03/02 15:24:51;;;;;;;33.65;14.73;;;;;;;8.87;nan;100060.69;10542473;28;20062;-71
2022/03/02 15:30:05;;;;;;;25.48;11.43;;;;;;;8.90;nan;100065.09;10557000;28;20044;-71
2022/03/02 15:35:17;;;;;;;22.40;10.27;;;;;;;8.88;nan;100056.38;10565921;28;20536;-72
2022/03/02 15:40:21;;;;;;;26.65;12.18;;;;;;;8.76;nan;100012.72;10565428;28;20542;-71
2022/03/02 15:45:25;;;;;;;28.98;12.60;;;;;;;8.73;nan;99997.00;10550873;28;20048;-72
2022/03/02 15:50:31;;;;;;;26.15;11.93;;;;;;;8.60;nan;99949.00;10561094;28;20063;-72
2022/03/02 15:56:09;;;;;;;25.02;10.65;;;;;;;8.59;nan;99940.31;10565727;28;20039;-71
2022/03/02 16:01:21;;;;;;;21.88;10.63;;;;;;;8.51;nan;99908.00;10540407;28;20596;-69
2022/03/02 16:06:24;;;;;;;20.67;9.65;;;;;;;8.42;nan;99871.34;10562311;28;20795;-71
2022/03/02 16:11:30;;;;;;;23.42;11.40;;;;;;;8.24;nan;99799.88;10559723;28;20058;-71
2022/03/02 16:16:35;;;;;;;27.92;12.00;;;;;;;8.17;nan;99774.59;10562397;28;21408;-72
2022/03/02 16:21:43;;;;;;;22.90;10.20;;;;;;;8.08;nan;99738.00;10557303;28;20059;-71
2022/03/02 16:26:46;;;;;;;24.65;11.25;;;;;;;7.99;nan;99696.16;10564203;28;20062;-72
2022/03/02 16:31:50;;;;;;;23.80;11.25;;;;;;;7.77;nan;99613.44;10561072;28;20040;-73
2022/03/02 16:36:52;;;;;;;24.50;11.02;;;;;;;7.71;nan;99586.44;10563911;28;20072;-73
2022/03/02 16:41:53;;;;;;;25.65;11.02;;;;;;;7.52;nan;99513.34;10562935;28;20067;-71
2022/03/02 16:46:57;;;;;;;22.98;10.45;;;;;;;7.36;nan;99446.34;10548671;28;20504;-73
2022/03/02 16:52:00;;;;;;;24.38;10.90;;;;;;;7.16;nan;99368.06;10551736;28;20136;-71
2022/03/02 16:57:01;;;;;;;25.35;11.00;;;;;;;6.97;nan;99295.03;10529325;28;20047;-72
2022/03/02 17:02:03;;;;;;;25.73;11.48;;;;;;;6.83;nan;99234.19;10559243;28;20146;-73
2022/03/02 17:07:06;;;;;;;26.27;11.20;;;;;;;6.65;nan;99164.69;10555014;28;20046;-73
2022/03/02 17:12:08;;;;;;;24.55;11.05;;;;;;;6.49;nan;99103.94;10540743;28;20043;-71
2022/03/02 17:17:11;;;;;;;30.05;13.48;;;;;;;6.36;nan;99050.97;10558831;28;20036;-72
2022/03/02 17:22:12;;;;;;;25.75;12.32;;;;;;;6.22;nan;99001.50;10559075;28;20075;-72
2022/03/02 17:27:14;;;;;;;24.77;11.20;;;;;;;6.07;nan;98942.50;10558953;28;20408;-72
2022/03/02 17:32:16;;;;;;;27.15;11.45;;;;;;;5.91;nan;98880.91;10561576;28;20083;-72
2022/03/02 17:37:19;;;;;;;23.60;11.00;;;;;;;5.81;nan;98844.50;10542701;28;20051;-72
2022/03/02 17:42:22;;;;;;;22.42;10.18;;;;;;;5.72;nan;98808.09;10539105;28;20509;-71
2022/03/02 17:47:25;;;;;;;25.80;12.02;;;;;;;5.55;nan;98734.44;10556000;28;20078;-72
2022/03/02 17:52:26;;;;;;;34.78;13.68;;;;;;;5.45;nan;98700.63;10543303;28;20052;-72
2022/03/02 17:57:28;;;;;;;28.90;11.32;;;;;;;5.39;nan;98677.25;10562693;28;20075;-71
2022/03/02 18:02:35;;;;;;;29.17;11.88;;;;;;;5.28;nan;98643.47;10562693;28;20710;-71
2022/03/02 18:07:37;;;;;;;27.95;11.65;;;;;;;5.13;nan;98584.59;10551595;28;20847;-71
2022/03/02 18:12:40;;;;;;;25.40;11.52;;;;;;;5.03;nan;98541.34;10561600;28;20040;-71
2022/03/02 18:17:43;;;;;;;26.77;11.70;;;;;;;4.82;nan;98459.16;10561395;28;20698;-71
2022/03/02 18:22:44;;;;;;;28.95;14.05;;;;;;;4.62;nan;98383.03;10567036;28;20048;-71
2022/03/02 18:27:46;;;;;;;28.77;13.07;;;;;;;4.41;nan;98305.25;10564276;28;20075;-70
2022/03/02 18:32:48;;;;;;;26.58;12.75;;;;;;;4.18;nan;98206.75;10568106;28;20042;-72
2022/03/02 18:37:50;;;;;;;29.40;12.05;;;;;;;3.96;nan;98127.31;10566753;28;20040;-71
2022/03/02 18:42:52;;;;;;;25.27;12.07;;;;;;;3.82;nan;98078.97;10560030;28;20040;-71
2022/03/02 18:47:54;;;;;;;23.60;11.50;;;;;;;3.70;nan;98033.22;10541983;28;20416;-71
2022/03/02 18:52:56;;;;;;;32.38;11.80;;;;;;;3.58;nan;97980.63;10567585;28;20431;-70
2022/03/02 18:57:59;;;;;;;25.90;12.68;;;;;;;3.48;nan;97946.09;10556020;28;20465;-70
2022/03/02 19:03:02;;;;;;;25.35;12.50;;;;;;;3.53;nan;97968.53;10551697;28;20047;-70
2022/03/02 19:08:07;;;;;;;28.40;13.63;;;;;;;3.50;nan;97953.00;10560838;28;20044;-71
2022/03/02 19:13:09;;;;;;;34.35;13.38;;;;;;;3.52;nan;97953.00;10567098;28;20861;-71
2022/03/02 19:18:11;;;;;;;28.88;12.43;;;;;;;3.48;nan;97943.53;10563953;28;20043;-71
2022/03/02 19:23:16;;;;;;;30.38;12.68;;;;;;;3.48;nan;97944.41;10559502;28;20055;-71
2022/03/02 19:28:17;;;;;;;28.90;12.55;;;;;;;3.48;nan;97943.53;10551193;28;20048;-72
2022/03/02 19:33:19;;;;;;;30.40;13.15;;;;;;;3.38;nan;97906.47;10539798;28;20044;-71
2022/03/02 19:43:42;;;;;;;34.15;15.07;;;;;;;3.21;nan;97836.63;10558912;28;20046;-70
2022/03/02 19:48:50;;;;;;;35.40;15.02;;;;;;;3.17;nan;97830.59;10564871;28;20408;-71
2022/03/02 19:53:52;;;;;;;36.38;15.27;;;;;;;3.14;nan;97824.59;10564642;28;20043;-71
2022/03/02 19:59:00;;;;;;;37.75;17.08;;;;;;;3.01;nan;97774.59;10557510;28;20051;-71
2022/03/02 20:06:39;;;;;;;30.92;13.93;;;;;;;;;;10514359;27;20633;-70
2022/03/02 20:11:41;;;;;;;45.63;13.35;;;;;;;;;;10459401;28;20125;-70
2022/03/02 20:16:44;;;;;;;30.65;14.38;;;;;;;;;;10432263;28;20048;-70
2022/03/02 20:21:46;;;;;;;40.42;15.10;;;;;;;;;;10404228;28;20389;-70
2022/03/02 20:26:48;;;;;;;35.70;14.75;;;;;;;;;;10432885;28;20045;-69
2022/03/02 20:31:49;;;;;;;34.20;15.48;;;;;;;;;;10451533;28;20051;-70
2022/03/02 20:36:51;;;;;;;38.08;14.88;;;;;;;;;;10466974;28;20129;-70
2022/03/02 20:41:52;;;;;;;35.25;14.65;;;;;;;;;;10458994;28;20047;-69
2022/03/02 20:46:53;;;;;;;36.03;15.77;;;;;;;;;;10459882;28;20053;-70
2022/03/02 20:51:56;;;;;;;39.92;15.50;;;;;;;;;;10463226;28;20882;-70
2022/03/02 20:57:01;;;;;;;33.70;15.32;;;;;;;;;;10432981;28;20041;-70
2022/03/02 21:02:02;;;;;;;36.08;15.02;;;;;;;;;;10430986;28;20041;-70
2022/03/02 21:07:04;;;;;;;35.33;15.70;;;;;;;;;;10445672;28;20056;-70
2022/03/02 21:12:06;;;;;;;41.88;15.63;;;;;;;;;;10431129;28;20061;-70
2022/03/02 21:17:07;;;;;;;35.63;15.18;;;;;;;;;;10423154;28;20051;-69
2022/03/02 21:22:09;;;;;;;35.28;14.68;;;;;;;;;;10403324;28;20138;-70
2022/03/02 21:27:10;;;;;;;38.53;15.98;;;;;;;;;;10403904;28;20128;-70
2022/03/02 21:32:12;;;;;;;36.65;15.43;;;;;;;;;;10409899;28;20053;-70
2022/03/02 21:37:13;;;;;;;36.80;16.00;;;;;;;;;;10403573;28;20093;-70
2022/03/02 21:42:17;;;;;;;38.58;16.02;;;;;;;;;;10402545;28;20053;-70
2022/03/02 21:47:18;;;;;;;41.28;17.33;;;;;;;;;;10403352;28;20182;-69
2022/03/02 21:52:22;;;;;;;45.72;18.15;;;;;;;;;;10402021;28;20045;-69
2022/03/02 21:57:25;;;;;;;35.85;16.20;;;;;;;;;;10395498;28;20045;-70
2022/03/02 22:02:26;;;;;;;42.25;16.02;;;;;;;;;;10402791;28;20055;-69
2022/03/02 22:07:28;;;;;;;38.05;15.63;;;;;;;;;;10403099;28;20047;-69
2022/03/02 22:12:34;;;;;;;38.92;15.75;;;;;;;;;;10401738;28;20046;-69
2022/03/02 22:17:36;;;;;;;37.30;16.15;;;;;;;;;;10395523;28;20453;-70
2022/03/02 22:22:38;;;;;;;39.50;15.38;;;;;;;;;;10401134;28;20045;-68
2022/03/02 22:27:41;;;;;;;38.75;15.75;;;;;;;;;;10407503;28;20041;-70
2022/03/02 22:32:42;;;;;;;35.90;14.85;;;;;;;;;;10399737;28;20140;-70
2022/03/02 22:37:44;;;;;;;36.65;15.80;;;;;;;;;;10401157;28;20053;-69
2022/03/02 22:42:45;;;;;;;39.10;17.83;;;;;;;;;;10400393;28;20140;-69
2022/03/02 22:47:46;;;;;;;37.03;16.00;;;;;;;;;;10400781;28;20509;-70
2022/03/02 22:52:48;;;;;;;38.13;16.58;;;;;;;;;;10400145;28;20049;-68
2022/03/02 22:57:49;;;;;;;38.63;15.50;;;;;;;;;;10400393;28;20063;-69
2022/03/02 23:02:51;;;;;;;33.00;14.38;;;;;;;;;;10405424;28;20044;-70
2022/03/02 23:18:32;;;;;;;41.47;15.45;;;;;;;;;;10393155;28;20056;-68
2022/03/02 23:23:34;;;;;;;39.95;14.18;;;;;;;;;;10398795;28;20045;-69
2022/03/02 23:28:35;;;;;;;40.85;14.50;;;;;;;;;;10398153;28;20041;-69
2022/03/02 23:33:37;;;;;;;41.03;15.40;;;;;;;;;;10398685;28;20049;-70
2022/03/02 23:38:38;;;;;;;34.80;15.10;;;;;;;;;;10398406;28;20128;-69
2022/03/02 23:43:39;;;;;;;33.08;13.98;;;;;;;;;;10398587;28;20049;-70
2022/03/02 23:48:41;;;;;;;36.13;12.57;;;;;;;;;;10397595;28;20049;-69
2022/03/02 23:53:42;;;;;;;33.13;14.05;;;;;;;;;;10398572;28;20053;-70
2022/03/02 23:58:44;;;;;;;32.72;13.38;;;;;;;;;;10398617;28;20495;-69
